createdAt,value
2022-09-18T00:00:59.218Z,0.43
2022-09-18T00:03:47.404Z,0.50
2022-09-18T00:06:39.744Z,1.50
2022-09-18T00:09:26.858Z,0.60
2022-09-18T00:12:13.790Z,1.63
2022-09-18T00:15:00.687Z,0.63
2022-09-18T00:17:47.781Z,1.30
2022-09-18T00:20:36.879Z,1.53
2022-09-18T00:23:23.819Z,1.17
2022-09-18T00:26:13.259Z,2.63
2022-09-18T00:29:00.310Z,0.73
2022-09-18T00:31:47.707Z,0.80
2022-09-18T00:34:34.679Z,2.00
2022-09-18T00:37:23.110Z,0.73
2022-09-18T00:40:10.980Z,1.10
2022-09-18T00:42:58.630Z,2.00
2022-09-18T00:45:52.228Z,1.30
2022-09-18T00:49:08.953Z,0.57
2022-09-18T00:51:59.095Z,1.37
2022-09-18T00:54:58.434Z,1.53
2022-09-18T00:57:53.909Z,0.80
2022-09-18T01:00:41.490Z,0.97
2022-09-18T01:03:29.970Z,2.63
2022-09-18T01:06:30.898Z,0.80
2022-09-18T01:09:29.273Z,1.37
2022-09-18T01:12:27.660Z,0.77
2022-09-18T01:15:37.473Z,1.23
2022-09-18T01:18:39.812Z,0.70
2022-09-18T01:21:33.995Z,1.80
2022-09-18T01:24:41.155Z,1.17
2022-09-18T01:27:36.590Z,0.80
2022-09-18T01:30:23.875Z,1.43
2022-09-18T01:33:19.564Z,2.00
2022-09-18T01:36:11.450Z,1.47
2022-09-18T01:39:07.743Z,1.63
2022-09-18T01:42:00.356Z,1.73
2022-09-18T01:44:50.144Z,1.70
2022-09-18T01:47:46.678Z,2.03
2022-09-18T01:50:41.363Z,1.13
2022-09-18T01:53:34.074Z,1.07
2022-09-18T01:56:35.430Z,1.43
2022-09-18T01:59:26.327Z,0.90
2022-09-18T02:02:37.588Z,2.10
2022-09-18T02:05:29.424Z,3.00
2022-09-18T02:08:31.295Z,3.23
2022-09-18T02:11:21.856Z,2.00
2022-09-18T02:14:14.554Z,0.90
2022-09-18T02:17:27.643Z,2.40
2022-09-18T02:20:25.864Z,2.13
2022-09-18T02:23:14.277Z,3.30
2022-09-18T02:26:07.325Z,1.63
2022-09-18T02:28:56.333Z,1.83
2022-09-18T02:31:43.708Z,1.77
2022-09-18T02:34:32.451Z,0.83
2022-09-18T02:37:41.416Z,1.10
2022-09-18T02:40:50.162Z,2.20
2022-09-18T02:44:13.477Z,1.13
2022-09-18T02:47:16.736Z,1.83
2022-09-18T02:50:36.521Z,1.93
2022-09-18T02:53:46.710Z,0.80
2022-09-18T02:56:52.804Z,1.10
2022-09-18T02:59:45.232Z,2.87
2022-09-18T03:02:34.572Z,2.07
2022-09-18T03:05:21.635Z,1.67
2022-09-18T03:08:14.846Z,0.80
2022-09-18T03:11:01.867Z,0.93
2022-09-18T03:13:49.192Z,0.90
2022-09-18T03:16:36.374Z,1.07
2022-09-18T03:19:23.462Z,1.17
2022-09-18T03:22:11.648Z,1.43
2022-09-18T03:24:58.617Z,1.67
2022-09-18T03:27:46.782Z,1.27
2022-09-18T03:30:44.437Z,0.97
2022-09-18T03:33:32.760Z,2.83
2022-09-18T03:36:19.806Z,2.03
2022-09-18T03:39:06.916Z,1.83
2022-09-18T03:41:54.015Z,1.43
2022-09-18T03:44:41.249Z,1.73
2022-09-18T03:47:37.685Z,1.80
2022-09-18T03:50:24.737Z,1.50
2022-09-18T03:53:12.395Z,2.63
2022-09-18T03:56:19.637Z,1.90
2022-09-18T03:59:25.904Z,0.90
2022-09-18T04:02:18.606Z,1.63
2022-09-18T04:05:31.617Z,1.67
2022-09-18T04:08:38.364Z,1.00
2022-09-18T04:11:48.555Z,1.57
2022-09-18T04:14:35.487Z,1.00
2022-09-18T04:17:23.772Z,0.60
2022-09-18T04:20:11.473Z,2.77
2022-09-18T04:23:01.102Z,1.40
2022-09-18T04:25:48.667Z,1.33
2022-09-18T04:28:37.142Z,1.37
2022-09-18T04:31:26.404Z,2.20
2022-09-18T04:34:15.927Z,1.73
2022-09-18T04:37:05.793Z,1.20
2022-09-18T04:39:57.171Z,0.90
2022-09-18T04:42:44.335Z,1.63
2022-09-18T04:45:31.371Z,1.37
2022-09-18T04:48:19.486Z,0.93
2022-09-18T04:51:07.157Z,2.40
2022-09-18T04:54:06.384Z,0.93
2022-09-18T04:56:56.757Z,0.63
2022-09-18T04:59:43.731Z,1.53
2022-09-18T05:02:31.731Z,2.63
2022-09-18T05:05:18.642Z,1.33
2022-09-18T05:08:05.638Z,0.97
2022-09-18T05:10:52.629Z,1.43
2022-09-18T05:13:40.707Z,1.70
2022-09-18T05:16:33.879Z,1.63
2022-09-18T05:19:41.185Z,1.23
2022-09-18T05:22:34.664Z,0.70
2022-09-18T05:25:27.300Z,1.50
2022-09-18T05:28:15.638Z,1.17
2022-09-18T05:31:05.542Z,0.80
2022-09-18T05:33:58.708Z,2.70
2022-09-18T05:36:46.388Z,1.97
2022-09-18T05:39:33.331Z,1.60
2022-09-18T05:42:22.133Z,1.90
2022-09-18T05:45:10.154Z,1.03
2022-09-18T05:48:02.752Z,1.30
2022-09-18T05:50:51.976Z,2.07
2022-09-18T05:53:42.029Z,1.50
2022-09-18T05:56:35.807Z,0.90
2022-09-18T05:59:22.897Z,2.20
2022-09-18T06:02:10.854Z,1.10
2022-09-18T06:05:24.637Z,1.70
2022-09-18T06:08:12.439Z,3.37
2022-09-18T06:11:03.240Z,5.47
2022-09-18T06:13:52.509Z,2.97
2022-09-18T06:16:42.286Z,2.47
2022-09-18T06:19:32.382Z,3.63
2022-09-18T06:22:19.506Z,5.00
2022-09-18T06:25:06.997Z,4.93
2022-09-18T06:28:00.054Z,6.30
2022-09-18T06:30:47.087Z,8.50
2022-09-18T06:33:36.201Z,6.73
2022-09-18T06:36:23.218Z,3.80
2022-09-18T06:39:25.439Z,3.93
2022-09-18T06:42:17.136Z,4.97
2022-09-18T06:45:21.430Z,8.13
2022-09-18T06:48:10.507Z,8.60
2022-09-18T06:50:59.558Z,9.93
2022-09-18T06:53:49.794Z,9.47
2022-09-18T06:56:36.893Z,6.97
2022-09-18T06:59:26.659Z,4.43
2022-09-18T07:02:19.192Z,3.77
2022-09-18T07:05:16.361Z,3.93
2022-09-18T07:08:03.689Z,3.43
2022-09-18T07:10:54.356Z,4.27
2022-09-18T07:13:41.457Z,6.20
2022-09-18T07:16:28.713Z,6.63
2022-09-18T07:19:16.343Z,2.20
2022-09-18T07:22:03.501Z,4.23
2022-09-18T07:24:55.721Z,5.43
2022-09-18T07:27:42.653Z,4.17
2022-09-18T07:30:30.225Z,3.23
2022-09-18T07:33:17.750Z,0.90
2022-09-18T07:36:07.798Z,0.93
2022-09-18T07:38:57.953Z,1.23
2022-09-18T07:41:48.346Z,3.13
2022-09-18T07:44:35.980Z,1.60
2022-09-18T07:47:25.246Z,0.90
2022-09-18T07:50:15.902Z,2.13
2022-09-18T07:53:05.349Z,1.20
2022-09-18T07:55:57.527Z,2.37
2022-09-18T07:58:45.785Z,2.10
2022-09-18T08:01:39.719Z,2.27
2022-09-18T08:04:26.673Z,3.13
2022-09-18T08:07:39.668Z,3.60
2022-09-18T08:10:47.064Z,5.03
2022-09-18T08:13:52.533Z,4.50
2022-09-18T08:16:58.132Z,2.40
2022-09-18T08:19:56.803Z,1.00
2022-09-18T08:23:06.354Z,0.80
2022-09-18T08:25:53.317Z,0.73
2022-09-18T08:28:40.217Z,0.93
2022-09-18T08:31:27.389Z,0.50
2022-09-18T08:34:17.009Z,1.80
2022-09-18T08:37:05.101Z,0.90
2022-09-18T08:40:14.352Z,0.80
2022-09-18T08:43:45.526Z,0.77
2022-09-18T08:46:43.295Z,0.70
2022-09-18T08:49:37.887Z,0.60
2022-09-18T08:52:42.852Z,0.50
2022-09-18T08:55:45.923Z,1.90
2022-09-18T08:59:00.430Z,0.60
2022-09-18T09:02:09.791Z,0.53
2022-09-18T09:05:01.445Z,0.70
2022-09-18T09:08:11.690Z,0.70
2022-09-18T09:11:01.594Z,1.03
2022-09-18T09:14:16.913Z,0.53
2022-09-18T09:17:24.750Z,0.60
2022-09-18T09:20:48.321Z,0.50
2022-09-18T09:23:41.276Z,0.50
2022-09-18T09:26:38.201Z,1.43
2022-09-18T09:29:40.831Z,0.87
2022-09-18T09:33:02.790Z,1.07
2022-09-18T09:36:03.957Z,1.37
2022-09-18T09:39:18.305Z,0.50
2022-09-18T09:42:18.538Z,0.60
2022-09-18T09:45:24.470Z,0.93
2022-09-18T09:48:33.830Z,0.60
2022-09-18T09:51:44.664Z,0.70
2022-09-18T09:54:32.522Z,0.60
2022-09-18T09:57:44.195Z,0.70
2022-09-18T10:00:40.801Z,0.50
2022-09-18T10:03:46.908Z,0.73
2022-09-18T10:06:34.737Z,1.40
2022-09-18T10:09:40.658Z,0.70
2022-09-18T10:12:34.626Z,0.70
2022-09-18T10:15:41.158Z,1.60
2022-09-18T10:18:44.064Z,0.50
2022-09-18T10:21:41.979Z,0.53
2022-09-18T10:24:53.894Z,0.73
2022-09-18T10:27:41.202Z,0.60
2022-09-18T10:30:28.290Z,0.70
2022-09-18T10:33:46.106Z,2.10
2022-09-18T10:36:38.884Z,0.50
2022-09-18T10:39:34.057Z,0.70
2022-09-18T10:42:27.324Z,0.70
2022-09-18T10:45:25.025Z,0.80
2022-09-18T10:48:21.566Z,0.70
2022-09-18T10:51:17.998Z,0.80
2022-09-18T10:54:17.893Z,0.60
2022-09-18T10:57:46.204Z,0.70
2022-09-18T11:00:41.875Z,0.70
2022-09-18T11:04:08.582Z,0.63
2022-09-18T11:07:02.636Z,0.57
2022-09-18T11:09:51.465Z,1.03
2022-09-18T11:12:56.403Z,1.47
2022-09-18T11:15:58.797Z,0.70
2022-09-18T11:18:47.634Z,0.80
2022-09-18T11:21:51.307Z,0.50
2022-09-18T11:24:45.218Z,0.70
2022-09-18T11:27:46.274Z,0.53
2022-09-18T11:30:36.001Z,0.97
2022-09-18T11:33:32.818Z,0.73
2022-09-18T11:36:25.909Z,0.47
2022-09-18T11:39:15.558Z,0.60
2022-09-18T11:42:14.026Z,0.60
2022-09-18T11:45:23.824Z,0.50
2022-09-18T11:48:29.941Z,0.70
2022-09-18T11:51:26.691Z,0.57
2022-09-18T11:54:33.603Z,0.50
2022-09-18T11:57:29.223Z,0.97
2022-09-18T12:00:19.801Z,0.60
2022-09-18T12:03:24.417Z,0.50
2022-09-18T12:06:36.254Z,1.37
2022-09-18T12:09:42.791Z,0.30
2022-09-18T12:12:44.551Z,0.30
2022-09-18T12:15:36.478Z,1.03
2022-09-18T12:18:37.206Z,0.43
2022-09-18T12:21:41.854Z,0.50
2022-09-18T12:24:29.205Z,0.40
2022-09-18T12:27:40.573Z,2.27
2022-09-18T12:30:41.487Z,0.50
2022-09-18T12:33:42.258Z,0.50
2022-09-18T12:36:40.039Z,0.57
2022-09-18T12:39:36.920Z,0.40
2022-09-18T12:42:38.724Z,0.57
2022-09-18T12:45:25.677Z,0.40
2022-09-18T12:48:31.492Z,0.43
2022-09-18T12:51:27.463Z,0.33
2022-09-18T12:54:56.140Z,0.40
2022-09-18T12:58:05.982Z,0.40
2022-09-18T13:00:53.574Z,0.40
2022-09-18T13:03:42.150Z,0.50
2022-09-18T13:06:46.735Z,0.53
2022-09-18T13:09:43.719Z,0.60
2022-09-18T13:12:53.603Z,0.40
2022-09-18T13:15:50.080Z,0.73
2022-09-18T13:18:40.806Z,0.50
2022-09-18T13:21:31.068Z,0.50
2022-09-18T13:24:24.657Z,0.60
2022-09-18T13:27:15.907Z,0.67
2022-09-18T13:30:29.080Z,0.97
2022-09-18T13:33:24.781Z,0.70
2022-09-18T13:36:11.746Z,0.70
2022-09-18T13:39:03.562Z,1.13
2022-09-18T13:41:54.396Z,0.67
2022-09-18T13:44:41.339Z,0.70
2022-09-18T13:47:29.543Z,0.70
2022-09-18T13:50:18.582Z,1.57
2022-09-18T13:53:05.724Z,0.60
2022-09-18T13:55:52.682Z,0.70
2022-09-18T13:58:52.495Z,1.03
2022-09-18T14:01:42.870Z,0.83
2022-09-18T14:04:39.118Z,0.50
2022-09-18T14:07:25.942Z,1.80
2022-09-18T14:10:32.499Z,1.20
2022-09-18T14:13:41.296Z,0.60
2022-09-18T14:16:38.756Z,1.73
2022-09-18T14:19:36.150Z,0.60
2022-09-18T14:22:29.798Z,0.60
2022-09-18T14:25:46.693Z,1.77
2022-09-18T14:28:34.591Z,0.70
2022-09-18T14:31:35.485Z,0.93
2022-09-18T14:34:39.118Z,0.70
2022-09-18T14:37:31.024Z,0.60
2022-09-18T14:40:24.026Z,1.73
2022-09-18T14:43:16.379Z,0.63
2022-09-18T14:46:03.433Z,0.60
2022-09-18T14:48:51.188Z,0.63
2022-09-18T14:52:03.285Z,2.00
2022-09-18T14:54:59.875Z,0.67
2022-09-18T14:57:53.878Z,0.93
2022-09-18T15:00:41.448Z,0.57
2022-09-18T15:03:31.898Z,0.97
2022-09-18T15:06:39.362Z,0.70
2022-09-18T15:09:30.644Z,1.30
2022-09-18T15:12:20.600Z,1.10
2022-09-18T15:15:33.155Z,1.80
2022-09-18T15:18:27.444Z,0.70
2022-09-18T15:21:30.983Z,0.93
2022-09-18T15:24:20.056Z,0.60
2022-09-18T15:27:07.119Z,1.60
2022-09-18T15:30:03.086Z,1.83
2022-09-18T15:33:03.858Z,0.70
2022-09-18T15:35:52.653Z,1.13
2022-09-18T15:38:43.357Z,0.70
2022-09-18T15:41:44.761Z,1.23
2022-09-18T15:44:34.622Z,0.70
2022-09-18T15:47:34.936Z,2.30
2022-09-18T15:50:31.664Z,0.67
2022-09-18T15:53:22.732Z,1.03
2022-09-18T15:56:20.013Z,0.70
2022-09-18T15:59:35.286Z,1.60
2022-09-18T16:02:37.661Z,1.17
2022-09-18T16:05:26.589Z,0.60
2022-09-18T16:08:22.066Z,0.87
2022-09-18T16:11:34.755Z,2.07
2022-09-18T16:14:44.579Z,1.53
2022-09-18T16:17:36.803Z,0.97
2022-09-18T16:20:38.218Z,0.57
2022-09-18T16:23:53.664Z,0.70
2022-09-18T16:26:40.728Z,0.90
2022-09-18T16:29:27.664Z,0.80
2022-09-18T16:32:15.355Z,1.10
2022-09-18T16:35:06.008Z,1.20
2022-09-18T16:37:55.094Z,2.53
2022-09-18T16:40:43.486Z,1.47
2022-09-18T16:43:30.470Z,0.70
2022-09-18T16:46:20.635Z,1.37
2022-09-18T16:49:08.603Z,0.77
2022-09-18T16:51:55.842Z,0.63
2022-09-18T16:54:42.741Z,1.90
2022-09-18T16:57:29.805Z,1.53
2022-09-18T17:00:17.178Z,0.90
2022-09-18T17:03:07.820Z,0.80
2022-09-18T17:05:55.046Z,0.50
2022-09-18T17:08:46.245Z,1.40
2022-09-18T17:11:34.544Z,1.37
2022-09-18T17:14:22.632Z,0.80
2022-09-18T17:17:09.599Z,0.70
2022-09-18T17:19:56.594Z,0.93
2022-09-18T17:22:45.109Z,0.73
2022-09-18T17:25:32.023Z,1.73
2022-09-18T17:28:18.969Z,1.13
2022-09-18T17:31:10.589Z,1.40
2022-09-18T17:33:57.598Z,0.93
2022-09-18T17:36:45.462Z,1.23
2022-09-18T17:39:32.361Z,1.37
2022-09-18T17:42:19.242Z,1.03
2022-09-18T17:45:06.643Z,2.23
2022-09-18T17:47:54.001Z,0.60
2022-09-18T17:50:40.932Z,0.53
2022-09-18T17:53:28.548Z,1.60
2022-09-18T17:56:18.716Z,1.70
2022-09-18T17:59:08.018Z,0.80
2022-09-18T18:01:55.212Z,0.80
2022-09-18T18:04:42.166Z,1.47
2022-09-18T18:07:29.070Z,0.70
2022-09-18T18:10:16.108Z,0.80
2022-09-18T18:13:03.034Z,0.80
2022-09-18T18:15:50.758Z,1.03
2022-09-18T18:18:38.486Z,2.70
2022-09-18T18:21:26.831Z,1.63
2022-09-18T18:24:16.261Z,1.13
2022-09-18T18:27:04.436Z,0.80
2022-09-18T18:29:52.431Z,0.97
2022-09-18T18:32:42.935Z,1.07
2022-09-18T18:35:29.888Z,2.13
2022-09-18T18:38:17.360Z,0.80
2022-09-18T18:41:05.385Z,0.90
2022-09-18T18:43:55.334Z,1.30
2022-09-18T18:46:42.647Z,1.23
2022-09-18T18:49:31.077Z,1.37
2022-09-18T18:52:18.037Z,0.90
2022-09-18T18:55:05.360Z,1.43
2022-09-18T18:57:52.596Z,0.97
2022-09-18T19:00:39.652Z,0.90
2022-09-18T19:03:26.980Z,2.60
2022-09-18T19:06:14.722Z,0.97
2022-09-18T19:09:05.059Z,0.80
2022-09-18T19:11:52.988Z,0.90
2022-09-18T19:14:39.984Z,0.90
2022-09-18T19:17:26.916Z,1.37
2022-09-18T19:20:14.342Z,2.40
2022-09-18T19:23:01.418Z,1.90
2022-09-18T19:25:48.423Z,1.87
2022-09-18T19:28:35.331Z,0.70
2022-09-18T19:31:23.236Z,2.03
2022-09-18T19:34:13.210Z,3.30
2022-09-18T19:37:00.407Z,1.00
2022-09-18T19:39:48.907Z,0.93
2022-09-18T19:42:35.969Z,3.00
2022-09-18T19:45:26.698Z,0.83
2022-09-18T19:48:22.820Z,1.27
2022-09-18T19:51:09.810Z,1.33
2022-09-18T19:53:56.736Z,0.87
2022-09-18T19:56:47.903Z,2.00
2022-09-18T19:59:34.837Z,0.73
2022-09-18T20:02:23.830Z,1.00
2022-09-18T20:05:10.859Z,1.40
2022-09-18T20:07:57.768Z,0.80
2022-09-18T20:10:47.222Z,0.87
2022-09-18T20:13:34.039Z,1.33
2022-09-18T20:16:22.417Z,1.00
2022-09-18T20:19:09.435Z,1.50
2022-09-18T20:21:56.518Z,0.83
2022-09-18T20:24:43.435Z,3.40
2022-09-18T20:27:38.644Z,2.20
2022-09-18T20:30:26.154Z,1.00
2022-09-18T20:33:13.266Z,1.07
2022-09-18T20:36:00.540Z,1.43
2022-09-18T20:38:51.506Z,1.03
2022-09-18T20:41:39.160Z,1.53
2022-09-18T20:44:26.724Z,0.60
2022-09-18T20:47:13.680Z,0.87
2022-09-18T20:50:13.448Z,0.87
2022-09-18T20:53:03.466Z,1.17
2022-09-18T20:55:50.790Z,0.63
2022-09-18T20:58:42.154Z,1.50
2022-09-18T21:01:29.694Z,0.70
2022-09-18T21:04:19.252Z,0.83
2022-09-18T21:07:06.172Z,0.77
2022-09-18T21:09:56.515Z,1.20
2022-09-18T21:12:45.205Z,0.80
2022-09-18T21:15:33.944Z,1.23
2022-09-18T21:18:20.855Z,1.17
2022-09-18T21:21:10.293Z,1.03
2022-09-18T21:23:58.554Z,1.00
2022-09-18T21:26:47.887Z,1.03
2022-09-18T21:29:34.894Z,1.43
2022-09-18T21:32:22.041Z,1.30
2022-09-18T21:35:09.235Z,1.20
2022-09-18T21:37:56.140Z,1.27
2022-09-18T21:40:44.409Z,1.50
2022-09-18T21:43:32.599Z,0.77
2022-09-18T21:46:21.631Z,1.57
2022-09-18T21:49:09.348Z,0.87
2022-09-18T21:52:00.420Z,1.80
2022-09-18T21:54:49.405Z,2.13
2022-09-18T21:57:36.878Z,0.83
2022-09-18T22:00:23.772Z,0.77
2022-09-18T22:03:10.701Z,0.70
2022-09-18T22:06:00.122Z,0.73
2022-09-18T22:08:52.382Z,1.13
2022-09-18T22:11:40.518Z,0.87
2022-09-18T22:14:31.898Z,1.27
2022-09-18T22:17:18.895Z,0.90
2022-09-18T22:20:06.653Z,0.90
2022-09-18T22:22:54.350Z,0.70
2022-09-18T22:25:41.232Z,0.87
2022-09-18T22:28:28.150Z,1.03
2022-09-18T22:31:15.506Z,0.93
2022-09-18T22:34:02.885Z,0.80
2022-09-18T22:36:50.642Z,1.10
2022-09-18T22:39:37.716Z,0.90
2022-09-18T22:42:24.627Z,0.83
2022-09-18T22:45:11.537Z,1.23
2022-09-18T22:47:58.445Z,0.83
2022-09-18T22:50:45.371Z,0.73
2022-09-18T22:53:33.496Z,1.10
2022-09-18T22:56:21.636Z,0.90
2022-09-18T22:59:11.566Z,1.33
2022-09-18T23:02:04.356Z,0.73
2022-09-18T23:04:51.867Z,1.27
2022-09-18T23:07:39.136Z,0.80
2022-09-18T23:10:26.040Z,0.73
2022-09-18T23:13:12.941Z,1.03
2022-09-18T23:16:06.312Z,0.83
2022-09-18T23:18:55.403Z,0.80
2022-09-18T23:21:42.438Z,1.17
2022-09-18T23:24:29.484Z,0.60
2022-09-18T23:27:16.398Z,0.57
2022-09-18T23:30:04.987Z,0.60
2022-09-18T23:32:51.893Z,0.53
2022-09-18T23:35:38.848Z,1.03
2022-09-18T23:38:25.758Z,0.40
2022-09-18T23:41:15.376Z,0.33
2022-09-18T23:44:02.990Z,0.40
2022-09-18T23:46:50.650Z,0.37
2022-09-18T23:49:37.612Z,1.97
2022-09-18T23:52:24.538Z,0.13
2022-09-18T23:55:11.973Z,0.33
2022-09-18T23:57:58.872Z,0.37
